Startpagina
METAR-TAF:

METAR-TAF

Vliegvelden :

Aeropuerto de Santander

Santander, Spanje

breedte: 43-26N, lengte: 003-49W, hoogte: 6 m

Actueel weer

Dit bericht is 43 minuten geleden gemaakt, om 16:00 UTC
Wind 6 kt uit het westen, variërend tussen het westzuidwesten en het noordnoordwesten
Temperatuur 17°C
Vochtigheid 72%
Druk 1016 hPa
Zicht 10 km of meer
Weinig wolken op 1900 ft
Verspreide wolken op 3900 ft

METAR: LEXJ 061600Z 28006KT 240V340 9999 FEW019 SCT039 17/12 Q1016

Tijdstip: 18:43 (16:43 UTC)

Verwachting

Dit bericht is 2 uur en het 43 minuten geleden gemaakt, om 14:00 UTC
Verwachting geldig van 06 om 15 UTC tot 07 om 15 UTC
Wind 4 kt uit het zuidwesten
Zicht 10 km of meer
Gebroken wolken op 5000 ft
Tijdelijke
van 06 om 15 UTC tot 06 om 19 UTC
Wind 10 kt uit het westnoordwesten
Tijdelijke
van 07 om 11 UTC tot 07 om 15 UTC
Wind 10 kt uit het noorden

TAF: LEXJ 061400Z 0615/0715 22004KT 9999 BKN050 TX18/0714Z TN12/0705Z TEMPO 0615/0619 30010KT TEMPO 0711/0715 36010KT

Waarnemingen en weersverwachtingen van meer dan 4000 vliegvelden (METAR en TAF).

De beschikbare stations zijn de gele en rode punten op de kaart.

Ga met uw muis naar het station om de naam te zien.

Klik dan om waarnemingen en weersverwachtingen te zien.

kaart wijzigen: klik op de groene knoppen met een zwart kruis om in te zoomen, op de groene knop met een streepje om uit te zoomen of op de groene pijlen voor aangrenzende kaarten.


METAR-TAF: